Time;durP1;ratioP1;P1;durP2;ratioP2;P2;SDS_P1;SDS_P2;PMS_P1;PMS_P2;Temp;Humidity;BMP_temperature;BMP_pressure;BME280_temperature;BME280_humidity;BME280_pressure;Samples;Min_cycle;Max_cycle;Signal;HPM_P1;HPM_P2
2022/06/26 00:01:13;;;;;;;8.30;3.70;;;15.70;99.90;;;;;;5291170;28;20031;-75
2022/06/26 00:03:44;;;;;;;7.22;3.10;;;15.80;99.90;;;;;;5290757;28;20474;-77
2022/06/26 00:06:15;;;;;;;5.07;3.10;;;16.00;99.90;;;;;;5290979;28;20035;-75
2022/06/26 00:08:46;;;;;;;5.13;3.58;;;16.00;99.90;;;;;;5291066;28;20030;-75
2022/06/26 00:11:17;;;;;;;6.53;3.67;;;16.00;99.90;;;;;;5290858;28;20392;-75
2022/06/26 00:13:48;;;;;;;5.57;3.40;;;15.90;99.90;;;;;;5290994;28;20016;-74
2022/06/26 00:16:21;;;;;;;8.73;3.63;;;15.30;99.90;;;;;;5290721;28;20466;-75
2022/06/26 00:18:52;;;;;;;7.60;3.65;;;15.40;99.90;;;;;;5289456;28;20525;-74
2022/06/26 00:21:23;;;;;;;8.98;4.28;;;15.30;99.90;;;;;;5289375;28;20157;-75
2022/06/26 00:23:54;;;;;;;11.25;3.80;;;15.20;99.90;;;;;;5290550;27;20368;-75
2022/06/26 00:26:24;;;;;;;5.07;3.28;;;15.50;99.90;;;;;;5767810;22;20049;-77
2022/06/26 00:28:55;;;;;;;4.97;3.20;;;15.60;99.90;;;;;;5227356;28;20017;-77
2022/06/26 00:31:26;;;;;;;6.93;3.60;;;15.70;99.90;;;;;;5227691;28;20035;-75
2022/06/26 00:33:57;;;;;;;4.45;3.20;;;15.60;99.90;;;;;;5227675;28;20025;-77
2022/06/26 00:36:28;;;;;;;4.97;3.15;;;15.40;99.90;;;;;;5227670;28;20368;-75
2022/06/26 00:38:58;;;;;;;4.63;3.33;;;15.20;99.90;;;;;;5227762;28;20025;-75
2022/06/26 00:41:29;;;;;;;6.57;3.85;;;15.20;99.90;;;;;;5226367;28;20470;-75
2022/06/26 00:44:00;;;;;;;4.75;3.00;;;15.40;99.90;;;;;;5227755;28;20361;-77
2022/06/26 00:46:31;;;;;;;6.18;3.25;;;15.30;99.90;;;;;;5227648;28;20025;-75
2022/06/26 00:49:01;;;;;;;6.90;3.67;;;15.00;99.90;;;;;;5227758;28;20044;-75
2022/06/26 00:51:33;;;;;;;9.05;3.50;;;14.80;99.90;;;;;;5227616;28;20032;-77
2022/06/26 00:54:04;;;;;;;12.98;3.80;;;15.10;99.90;;;;;;5227371;28;20025;-77
2022/06/26 00:56:36;;;;;;;11.05;3.83;;;15.20;99.90;;;;;;5227206;28;20036;-77
2022/06/26 00:59:07;;;;;;;7.15;3.42;;;15.30;99.90;;;;;;5227495;28;20104;-77
2022/06/26 01:01:38;;;;;;;8.60;3.33;;;15.40;99.90;;;;;;5227344;28;20029;-77
2022/06/26 01:04:09;;;;;;;9.13;3.25;;;15.30;99.90;;;;;;5227586;28;20746;-76
2022/06/26 01:06:40;;;;;;;5.35;3.03;;;15.20;99.90;;;;;;5227267;28;20107;-76
2022/06/26 01:09:11;;;;;;;4.82;3.15;;;15.00;99.90;;;;;;5227260;28;20469;-77
2022/06/26 01:11:42;;;;;;;7.70;3.40;;;15.10;99.90;;;;;;5227496;28;20083;-75
2022/06/26 01:14:14;;;;;;;9.43;3.67;;;14.70;99.90;;;;;;5227207;28;20072;-74
2022/06/26 01:16:45;;;;;;;5.90;3.17;;;14.50;99.90;;;;;;5227164;28;20083;-74
2022/06/26 01:19:18;;;;;;;8.32;3.20;;;14.70;99.90;;;;;;5227286;28;20480;-77
2022/06/26 01:21:49;;;;;;;7.13;3.50;;;14.90;99.90;;;;;;5227219;28;20059;-78
2022/06/26 01:24:19;;;;;;;9.05;3.35;;;15.00;99.90;;;;;;5227248;28;20052;-78
2022/06/26 01:26:50;;;;;;;5.82;3.40;;;15.10;99.90;;;;;;5226892;28;20107;-77
2022/06/26 01:29:21;;;;;;;7.38;3.13;;;14.80;99.90;;;;;;5227194;28;20017;-76
2022/06/26 01:31:52;;;;;;;7.28;3.25;;;14.90;99.90;;;;;;5227341;28;20352;-75
2022/06/26 01:34:23;;;;;;;7.85;3.40;;;14.70;99.90;;;;;;5227236;28;20516;-75
2022/06/26 01:36:55;;;;;;;5.95;3.65;;;14.50;99.90;;;;;;5228117;28;20419;-77
2022/06/26 01:39:25;;;;;;;5.75;3.50;;;14.20;99.90;;;;;;5231257;28;20372;-74
2022/06/26 01:41:56;;;;;;;9.10;3.42;;;14.60;99.90;;;;;;5231210;28;20100;-75
2022/06/26 01:44:27;;;;;;;6.00;3.00;;;14.50;99.90;;;;;;5230924;28;20033;-74
2022/06/26 01:46:58;;;;;;;4.00;2.80;;;14.70;99.90;;;;;;5231261;28;20393;-78
2022/06/26 01:49:29;;;;;;;5.32;3.45;;;14.70;99.90;;;;;;5230934;28;20025;-74
2022/06/26 01:52:00;;;;;;;4.25;3.35;;;14.50;99.90;;;;;;5230920;28;20013;-75
2022/06/26 01:54:31;;;;;;;6.60;3.05;;;14.20;99.90;;;;;;5230823;28;20447;-78
2022/06/26 01:57:01;;;;;;;5.40;3.03;;;14.40;99.90;;;;;;5230763;28;20041;-77
2022/06/26 01:59:32;;;;;;;4.80;3.45;;;14.00;99.90;;;;;;5230712;28;20020;-77
2022/06/26 02:02:03;;;;;;;6.25;3.72;;;14.10;99.90;;;;;;5230635;28;20037;-75
2022/06/26 02:04:34;;;;;;;5.68;3.28;;;14.00;99.90;;;;;;5230552;28;20032;-75
2022/06/26 02:07:05;;;;;;;8.85;3.35;;;14.30;99.90;;;;;;5230818;28;20029;-75
2022/06/26 02:15:14;;;;;;;5.95;3.30;;;14.40;99.90;;;;;;5230429;28;20393;-75
2022/06/26 02:17:45;;;;;;;4.47;3.35;;;14.40;99.90;;;;;;5230491;28;20017;-74
2022/06/26 02:20:15;;;;;;;5.03;2.92;;;14.10;99.90;;;;;;5230336;28;20480;-75
2022/06/26 02:22:46;;;;;;;4.03;3.25;;;14.30;99.90;;;;;;5229118;28;20021;-75
2022/06/26 02:25:17;;;;;;;5.05;3.03;;;13.80;99.90;;;;;;5230093;28;20360;-75
2022/06/26 02:27:48;;;;;;;5.82;3.55;;;14.00;99.90;;;;;;5230055;28;20495;-75
2022/06/26 02:30:19;;;;;;;5.97;3.67;;;14.10;99.90;;;;;;5230182;28;20033;-75
2022/06/26 02:32:49;;;;;;;4.90;3.40;;;14.20;99.90;;;;;;5230241;28;20017;-74
2022/06/26 02:35:20;;;;;;;4.47;3.40;;;14.10;99.90;;;;;;5229849;28;20400;-78
2022/06/26 02:37:52;;;;;;;4.53;2.97;;;14.00;99.90;;;;;;5229812;28;20411;-78
2022/06/26 02:40:24;;;;;;;7.45;3.28;;;14.00;99.90;;;;;;5229857;28;20021;-78
2022/06/26 02:42:55;;;;;;;5.45;2.85;;;14.20;99.90;;;;;;5230126;28;20455;-77
2022/06/26 02:45:26;;;;;;;4.85;3.15;;;14.00;99.90;;;;;;5229746;28;20115;-77
2022/06/26 02:47:57;;;;;;;5.65;3.40;;;14.10;99.90;;;;;;5229839;28;20361;-75
2022/06/26 02:50:27;;;;;;;3.83;2.70;;;14.00;99.90;;;;;;5229814;28;20024;-74
2022/06/26 02:52:58;;;;;;;4.55;3.42;;;14.00;99.90;;;;;;5229936;28;20372;-78
2022/06/26 02:55:29;;;;;;;7.13;3.45;;;14.10;99.90;;;;;;5229540;28;20115;-75
2022/06/26 02:58:00;;;;;;;4.53;3.25;;;13.80;99.90;;;;;;5229698;28;20028;-75
2022/06/26 03:00:31;;;;;;;4.53;3.00;;;14.10;99.90;;;;;;5229494;28;20052;-74
2022/06/26 03:03:03;;;;;;;4.03;2.70;;;14.20;99.90;;;;;;5229479;28;20025;-75
2022/06/26 03:05:34;;;;;;;4.35;3.30;;;14.40;99.90;;;;;;5229472;28;20021;-74
2022/06/26 03:08:05;;;;;;;7.07;3.50;;;14.20;99.90;;;;;;5229454;28;20452;-76
2022/06/26 03:10:36;;;;;;;6.95;3.47;;;14.00;99.90;;;;;;5229375;28;20021;-74
2022/06/26 03:13:07;;;;;;;5.20;3.08;;;14.00;99.90;;;;;;5229449;28;20163;-77
2022/06/26 03:15:37;;;;;;;5.07;3.20;;;14.20;99.90;;;;;;5229142;28;20124;-76
2022/06/26 03:18:08;;;;;;;4.95;2.90;;;14.40;99.90;;;;;;5229350;28;20040;-76
2022/06/26 03:20:41;;;;;;;7.28;3.20;;;14.20;99.90;;;;;;5229153;28;20108;-75
2022/06/26 03:23:12;;;;;;;6.63;3.30;;;14.50;99.90;;;;;;5228976;28;20087;-78
2022/06/26 03:25:43;;;;;;;6.80;3.38;;;14.50;99.90;;;;;;5227401;28;20028;-78
2022/06/26 03:28:13;;;;;;;8.05;3.50;;;14.60;99.90;;;;;;5229123;28;20025;-74
2022/06/26 03:30:44;;;;;;;3.88;3.08;;;14.50;99.90;;;;;;5229225;28;20465;-78
2022/06/26 03:33:15;;;;;;;4.95;3.50;;;14.40;99.90;;;;;;5228980;28;20469;-75
2022/06/26 03:35:46;;;;;;;4.78;3.65;;;14.50;99.90;;;;;;5228831;28;20040;-75
2022/06/26 03:38:17;;;;;;;3.85;2.90;;;14.60;99.90;;;;;;5228758;28;20024;-78
2022/06/26 03:40:47;;;;;;;4.68;3.15;;;14.60;99.90;;;;;;5228732;28;20029;-76
2022/06/26 03:43:18;;;;;;;6.80;3.72;;;14.80;99.90;;;;;;5228651;28;20047;-77
2022/06/26 03:45:49;;;;;;;14.68;4.00;;;14.70;99.90;;;;;;5228529;28;20044;-74
2022/06/26 03:48:20;;;;;;;4.40;3.72;;;14.50;99.90;;;;;;5228699;28;20037;-74
2022/06/26 03:50:50;;;;;;;7.10;3.70;;;14.50;99.90;;;;;;5228645;28;20025;-74
2022/06/26 03:53:21;;;;;;;4.30;3.20;;;15.10;99.90;;;;;;5228667;28;20027;-77
2022/06/26 03:55:52;;;;;;;4.85;3.78;;;15.20;99.90;;;;;;5228187;28;20045;-74
2022/06/26 03:58:23;;;;;;;6.18;3.25;;;14.80;99.90;;;;;;5228305;28;20500;-74
2022/06/26 04:00:54;;;;;;;6.90;4.03;;;15.00;99.90;;;;;;5227640;28;20401;-74
2022/06/26 04:03:25;;;;;;;6.22;3.00;;;15.30;99.90;;;;;;5228222;28;20073;-78
2022/06/26 04:05:56;;;;;;;4.40;3.50;;;15.40;99.90;;;;;;5228242;28;20417;-78
2022/06/26 04:08:27;;;;;;;5.07;3.30;;;15.70;99.90;;;;;;5228344;28;20112;-78
2022/06/26 04:10:58;;;;;;;7.55;4.15;;;15.40;99.90;;;;;;5228219;28;20544;-75
2022/06/26 04:13:29;;;;;;;5.20;3.08;;;15.70;99.90;;;;;;5228367;28;20374;-77
2022/06/26 04:16:00;;;;;;;5.38;3.22;;;16.20;99.90;;;;;;5227980;28;20115;-74
2022/06/26 04:18:30;;;;;;;4.10;3.38;;;16.20;99.90;;;;;;5228053;28;20082;-74
2022/06/26 04:21:01;;;;;;;8.07;3.38;;;16.60;99.90;;;;;;5228161;28;20029;-74
2022/06/26 04:23:32;;;;;;;6.93;3.60;;;16.50;99.90;;;;;;5227922;28;20147;-74
2022/06/26 04:26:04;;;;;;;4.13;3.05;;;16.60;99.90;;;;;;5227661;28;20052;-74
2022/06/26 04:28:36;;;;;;;3.92;3.20;;;17.00;99.90;;;;;;5227849;28;20029;-75
2022/06/26 04:31:06;;;;;;;10.00;2.95;;;17.20;99.90;;;;;;5227975;28;20025;-77
2022/06/26 04:33:37;;;;;;;3.35;2.60;;;17.50;99.90;;;;;;5226397;28;20108;-77
2022/06/26 04:36:08;;;;;;;6.25;2.80;;;17.40;99.90;;;;;;5227690;28;20475;-78
2022/06/26 04:38:39;;;;;;;5.47;3.08;;;17.50;99.90;;;;;;5227656;28;20100;-75
2022/06/26 04:43:59;;;;;;;4.22;3.13;;;18.20;99.90;;;;;;5227819;28;20092;-77
2022/06/26 04:46:30;;;;;;;2.80;2.60;;;18.30;99.90;;;;;;5227661;28;20029;-77
2022/06/26 04:49:01;;;;;;;3.88;2.80;;;18.60;99.90;;;;;;5227709;28;20071;-75
2022/06/26 04:51:35;;;;;;;3.42;2.67;;;18.90;99.90;;;;;;5227678;28;20029;-75
2022/06/26 04:54:08;;;;;;;5.13;2.40;;;19.20;99.90;;;;;;5227440;28;20028;-74
2022/06/26 04:56:39;;;;;;;4.45;2.67;;;19.30;99.90;;;;;;5227344;28;20484;-77
2022/06/26 04:59:10;;;;;;;3.05;2.38;;;19.60;99.90;;;;;;5227432;28;20067;-78
2022/06/26 05:01:41;;;;;;;3.03;2.72;;;19.80;99.90;;;;;;5227409;28;20463;-74
2022/06/26 05:04:11;;;;;;;4.68;3.20;;;20.20;99.90;;;;;;5227346;28;20453;-78
2022/06/26 05:06:42;;;;;;;5.22;3.30;;;20.50;99.90;;;;;;5227248;28;20109;-74
2022/06/26 05:09:13;;;;;;;5.70;3.53;;;20.80;99.90;;;;;;5227291;28;20079;-77
2022/06/26 05:11:44;;;;;;;5.53;3.83;;;20.60;99.90;;;;;;5229966;28;20021;-75
2022/06/26 05:14:16;;;;;;;8.00;3.83;;;21.10;99.90;;;;;;5231371;28;20373;-77
2022/06/26 05:16:47;;;;;;;12.60;4.47;;;21.20;99.90;;;;;;5231431;28;20465;-74
2022/06/26 05:19:18;;;;;;;10.70;4.55;;;21.30;99.90;;;;;;5231644;28;20029;-76
2022/06/26 05:21:48;;;;;;;8.35;3.33;;;21.50;99.90;;;;;;5231410;28;20556;-75
2022/06/26 05:24:19;;;;;;;6.93;3.13;;;21.80;99.90;;;;;;5231336;28;20104;-74
2022/06/26 05:26:50;;;;;;;5.90;2.72;;;22.10;99.90;;;;;;5230872;28;20500;-74
2022/06/26 05:29:21;;;;;;;4.32;2.60;;;22.20;99.90;;;;;;5231293;28;20052;-74
2022/06/26 05:31:52;;;;;;;3.92;2.15;;;22.30;99.90;;;;;;5231324;28;20057;-74
2022/06/26 05:34:23;;;;;;;4.38;2.28;;;22.50;99.90;;;;;;5231099;28;20075;-78
2022/06/26 05:36:54;;;;;;;3.50;2.05;;;22.40;99.90;;;;;;5231222;28;20052;-77
2022/06/26 05:39:25;;;;;;;3.65;2.00;;;22.50;99.90;;;;;;5231064;28;20055;-74
2022/06/26 05:41:55;;;;;;;6.82;2.20;;;22.50;99.90;;;;;;5231235;28;20075;-74
2022/06/26 05:44:26;;;;;;;5.05;2.38;;;22.60;99.90;;;;;;5229789;28;20029;-78
2022/06/26 05:47:00;;;;;;;3.75;2.22;;;22.70;99.90;;;;;;5230874;28;20029;-78
2022/06/26 05:49:31;;;;;;;5.10;1.98;;;23.00;99.90;;;;;;5231088;28;20457;-78
2022/06/26 05:52:02;;;;;;;1.75;1.50;;;22.70;99.90;;;;;;5230900;28;20025;-74
2022/06/26 05:54:32;;;;;;;5.30;1.95;;;22.80;99.90;;;;;;5230705;28;20029;-78
2022/06/26 05:57:04;;;;;;;3.97;1.95;;;22.60;99.90;;;;;;5230669;28;20453;-78
2022/06/26 05:59:34;;;;;;;5.30;1.90;;;22.70;99.90;;;;;;5230708;28;20021;-78
2022/06/26 06:02:05;;;;;;;2.60;1.50;;;22.50;99.90;;;;;;5230896;28;20519;-75
2022/06/26 06:04:36;;;;;;;2.70;1.90;;;22.80;99.90;;;;;;5229357;28;20498;-77
2022/06/26 06:07:07;;;;;;;3.75;2.00;;;22.60;99.90;;;;;;5230684;28;20075;-78
2022/06/26 06:09:38;;;;;;;5.60;1.75;;;22.50;99.90;;;;;;5230630;28;20028;-78
2022/06/26 06:12:09;;;;;;;3.28;1.40;;;22.70;99.90;;;;;;5230530;28;20021;-78
2022/06/26 06:14:39;;;;;;;1.65;1.33;;;22.90;99.90;;;;;;5230303;28;20041;-76
2022/06/26 06:19:59;;;;;;;6.13;1.48;;;22.60;99.90;;;;;;5230362;28;20075;-74
2022/06/26 06:22:30;;;;;;;4.10;1.48;;;22.50;99.90;;;;;;5229520;28;20060;-76
2022/06/26 06:25:01;;;;;;;4.40;1.88;;;22.80;99.90;;;;;;5230006;28;20033;-75
2022/06/26 06:27:32;;;;;;;7.07;1.70;;;22.70;99.90;;;;;;5229929;28;20133;-78
2022/06/26 06:30:06;;;;;;;3.30;1.80;;;23.10;99.90;;;;;;5228947;28;20024;-79
2022/06/26 06:32:37;;;;;;;3.67;1.60;;;23.70;99.90;;;;;;5230262;28;20028;-79
2022/06/26 06:35:12;;;;;;;2.70;1.40;;;23.50;99.90;;;;;;5229959;28;20065;-78
2022/06/26 06:37:44;;;;;;;4.88;1.80;;;23.70;99.90;;;;;;5229959;28;20494;-75
2022/06/26 06:40:15;;;;;;;4.93;1.77;;;23.20;99.90;;;;;;5230009;28;20025;-74
2022/06/26 06:42:46;;;;;;;1.63;1.30;;;22.90;99.90;;;;;;5229833;28;20373;-74
2022/06/26 06:45:16;;;;;;;3.45;2.35;;;23.30;99.90;;;;;;5229923;28;20040;-79
2022/06/26 06:47:47;;;;;;;4.00;2.72;;;23.80;99.90;;;;;;5229812;28;20040;-78
2022/06/26 06:50:18;;;;;;;3.30;1.75;;;24.10;99.90;;;;;;5229736;28;20025;-74
2022/06/26 06:52:49;;;;;;;2.00;1.33;;;24.10;99.90;;;;;;5229657;28;20028;-74
2022/06/26 06:55:19;;;;;;;4.72;1.83;;;24.20;99.90;;;;;;5229267;28;20040;-74
2022/06/26 06:57:50;;;;;;;6.85;1.42;;;24.40;99.90;;;;;;5229485;28;20476;-74
2022/06/26 07:00:21;;;;;;;3.75;1.48;;;24.40;99.90;;;;;;5229635;28;20025;-78
2022/06/26 07:02:52;;;;;;;1.50;1.40;;;24.50;99.90;;;;;;5228385;28;20037;-74
2022/06/26 07:05:23;;;;;;;9.20;1.50;;;24.50;99.90;;;;;;5229412;28;20385;-79
2022/06/26 07:07:53;;;;;;;2.78;1.25;;;24.60;99.90;;;;;;5229371;28;20089;-76
2022/06/26 07:10:24;;;;;;;3.75;1.17;;;24.50;99.90;;;;;;5229429;28;20033;-74
2022/06/26 07:12:58;;;;;;;2.85;1.33;;;24.70;99.90;;;;;;5229275;28;20150;-74
2022/06/26 07:15:29;;;;;;;2.92;1.58;;;25.00;99.90;;;;;;5229262;28;20041;-74
2022/06/26 07:18:00;;;;;;;3.10;1.30;;;25.40;99.90;;;;;;5229090;28;20024;-73
2022/06/26 07:20:30;;;;;;;2.63;1.30;;;24.50;99.90;;;;;;5229094;28;20051;-79
2022/06/26 07:23:01;;;;;;;2.83;1.30;;;24.50;99.90;;;;;;5228957;28;20028;-80
2022/06/26 07:25:32;;;;;;;2.38;1.58;;;24.30;99.90;;;;;;5228602;28;20040;-76
2022/06/26 07:28:03;;;;;;;1.88;1.05;;;23.90;99.90;;;;;;5229102;28;20032;-79
2022/06/26 07:30:35;;;;;;;1.75;1.08;;;24.10;99.90;;;;;;5228987;28;20107;-79
2022/06/26 07:34:12;;;;;;;4.15;1.08;;;24.10;99.90;;;;;;5228930;28;20503;-77
2022/06/26 07:35:57;;;;;;;1.88;1.15;;;24.80;99.90;;;;;;5227818;28;20493;-73
2022/06/26 07:38:28;;;;;;;5.45;1.48;;;24.90;99.90;;;;;;5228719;28;20033;-74
2022/06/26 07:40:59;;;;;;;1.88;0.90;;;25.00;99.90;;;;;;5227520;28;20481;-74
2022/06/26 07:43:30;;;;;;;3.33;1.30;;;25.00;99.90;;;;;;5228557;28;20057;-79
2022/06/26 07:46:01;;;;;;;4.15;1.45;;;24.60;99.90;;;;;;5228662;28;20095;-74
2022/06/26 07:48:33;;;;;;;5.05;1.50;;;24.30;99.90;;;;;;5228580;28;20029;-79
2022/06/26 07:51:04;;;;;;;3.75;1.20;;;24.20;99.90;;;;;;5228640;28;20029;-80
2022/06/26 07:53:36;;;;;;;4.88;1.30;;;24.60;99.90;;;;;;5228420;28;20033;-79
2022/06/26 07:56:07;;;;;;;7.43;1.52;;;25.30;99.90;;;;;;5228243;28;20128;-79
2022/06/26 07:58:38;;;;;;;2.60;1.30;;;25.00;99.90;;;;;;5228245;28;20583;-74
2022/06/26 08:01:09;;;;;;;4.40;1.52;;;24.90;99.90;;;;;;5228433;28;20036;-74
2022/06/26 08:03:40;;;;;;;3.30;1.20;;;25.30;99.90;;;;;;5228294;28;20021;-74
2022/06/26 08:06:11;;;;;;;6.13;1.48;;;25.40;99.90;;;;;;5228246;28;20028;-74
2022/06/26 08:08:42;;;;;;;4.72;1.30;;;25.80;99.90;;;;;;5228075;28;20159;-73
2022/06/26 08:11:13;;;;;;;3.88;1.10;;;25.60;99.90;;;;;;5228257;28;20512;-80
2022/06/26 08:13:44;;;;;;;2.63;1.48;;;25.50;99.90;;;;;;5226988;28;20017;-73
2022/06/26 08:16:15;;;;;;;1.13;0.90;;;25.70;99.90;;;;;;5226612;28;20033;-74
2022/06/26 08:18:46;;;;;;;4.60;1.13;;;25.60;99.90;;;;;;5228054;28;20420;-80
2022/06/26 08:24:06;;;;;;;2.30;1.15;;;26.30;99.90;;;;;;5228140;28;20106;-80
2022/06/26 08:26:37;;;;;;;1.08;0.98;;;26.10;99.90;;;;;;5227504;28;20072;-75
2022/06/26 08:29:07;;;;;;;1.90;1.10;;;26.00;99.90;;;;;;5228039;28;20480;-79
2022/06/26 08:31:38;;;;;;;1.90;1.08;;;25.90;99.90;;;;;;5227997;28;20047;-79
2022/06/26 08:34:09;;;;;;;3.13;1.50;;;26.00;99.90;;;;;;5227807;28;20477;-79
2022/06/26 08:36:41;;;;;;;3.15;1.02;;;25.70;99.90;;;;;;5227707;28;20109;-74
2022/06/26 08:39:12;;;;;;;3.90;0.98;;;25.40;99.90;;;;;;5227726;28;20024;-74
2022/06/26 08:41:45;;;;;;;3.95;1.30;;;25.30;99.90;;;;;;5227659;28;20118;-80
2022/06/26 08:44:16;;;;;;;3.60;1.23;;;25.30;99.90;;;;;;5227568;28;20469;-74
2022/06/26 08:46:47;;;;;;;2.53;1.23;;;25.90;99.90;;;;;;5227340;28;20040;-80
2022/06/26 08:49:21;;;;;;;3.00;1.00;;;25.60;99.90;;;;;;5227646;28;20156;-79
2022/06/26 08:51:53;;;;;;;4.43;1.20;;;26.00;99.90;;;;;;5227424;28;20033;-80
2022/06/26 08:54:26;;;;;;;2.70;1.25;;;25.90;99.90;;;;;;5227372;28;20027;-79
2022/06/26 08:56:58;;;;;;;2.15;1.00;;;26.60;99.90;;;;;;5227521;28;20469;-74
2022/06/26 08:59:30;;;;;;;3.63;1.10;;;26.50;99.90;;;;;;5227333;28;20025;-74
2022/06/26 09:02:01;;;;;;;4.35;1.52;;;26.30;99.90;;;;;;5227260;28;20043;-74
2022/06/26 09:04:31;;;;;;;3.60;1.13;;;26.80;99.90;;;;;;5227347;28;20116;-79
2022/06/26 09:07:07;;;;;;;3.67;1.05;;;26.30;99.90;;;;;;5227356;28;20102;-79
2022/06/26 09:09:40;;;;;;;2.75;0.93;;;26.10;99.90;;;;;;5227314;28;20025;-74
2022/06/26 09:12:11;;;;;;;1.88;0.90;;;26.50;99.90;;;;;;5227250;28;20033;-80
2022/06/26 09:14:43;;;;;;;1.85;0.80;;;26.70;99.90;;;;;;5227241;28;20461;-80
2022/06/26 09:17:14;;;;;;;5.30;1.30;;;27.10;99.90;;;;;;5227237;28;20087;-74
2022/06/26 09:19:45;;;;;;;2.05;1.10;;;27.20;99.90;;;;;;5227355;28;20461;-79
2022/06/26 09:22:17;;;;;;;4.70;1.10;;;27.00;99.90;;;;;;5227006;28;20436;-80
2022/06/26 09:24:56;;;;;;;1.70;1.10;;;27.00;99.90;;;;;;5227104;28;20029;-79
2022/06/26 09:27:27;;;;;;;1.33;0.80;;;27.50;99.90;;;;;;5226942;28;20056;-80
2022/06/26 09:29:58;;;;;;;16.90;1.45;;;27.10;99.90;;;;;;5227156;28;20473;-74
2022/06/26 09:32:31;;;;;;;1.48;0.90;;;27.40;99.90;;;;;;5227032;28;20025;-75
2022/06/26 09:35:02;;;;;;;2.35;0.80;;;27.20;99.90;;;;;;5227060;28;20037;-74
2022/06/26 09:37:37;;;;;;;1.85;0.70;;;27.40;99.90;;;;;;5227094;28;20044;-74
2022/06/26 09:40:08;;;;;;;1.40;1.00;;;27.10;99.90;;;;;;5226925;28;20029;-81
2022/06/26 09:42:39;;;;;;;1.17;0.80;;;27.40;99.90;;;;;;5227107;28;20082;-74
2022/06/26 09:45:10;;;;;;;7.00;0.73;;;27.50;99.90;;;;;;5226955;28;20029;-75
2022/06/26 09:47:43;;;;;;;1.58;0.68;;;27.20;99.90;;;;;;5227026;28;20074;-74
2022/06/26 09:50:14;;;;;;;2.35;0.80;;;27.20;99.90;;;;;;5227079;28;20033;-81
2022/06/26 09:52:45;;;;;;;1.35;0.65;;;27.10;99.90;;;;;;5226928;28;20021;-80
2022/06/26 09:55:16;;;;;;;1.77;0.90;;;26.90;99.90;;;;;;5226633;28;20462;-79
2022/06/26 09:57:47;;;;;;;2.40;0.90;;;27.40;99.90;;;;;;5227669;28;20116;-74
2022/06/26 10:00:18;;;;;;;1.17;0.90;;;27.70;99.90;;;;;;5230698;28;20112;-74
2022/06/26 10:08:31;;;;;;;4.05;0.77;;;28.10;99.90;;;;;;5230926;28;20041;-80
2022/06/26 10:11:05;;;;;;;1.20;0.60;;;27.50;99.90;;;;;;5230458;28;20484;-81
2022/06/26 10:13:39;;;;;;;2.95;0.70;;;27.40;99.90;;;;;;5230402;28;20111;-74
2022/06/26 10:16:29;;;;;;;1.08;0.65;;;27.70;99.90;;;;;;5230264;28;20437;-81
2022/06/26 10:19:18;;;;;;;;;;;27.90;99.90;;;;;;5230883;28;20017;-81
2022/06/26 10:21:50;;;;;;;3.53;0.90;;;27.30;99.90;;;;;;5230275;28;19931;-81
2022/06/26 10:24:21;;;;;;;3.72;0.90;;;27.50;99.90;;;;;;5230151;28;20032;-74
2022/06/26 10:27:00;;;;;;;1.40;0.70;;;27.90;99.90;;;;;;5229821;28;20052;-79
2022/06/26 10:29:41;;;;;;;1.77;0.90;;;27.90;99.90;;;;;;5230189;28;20033;-81
2022/06/26 10:32:23;;;;;;;2.75;0.90;;;27.80;99.90;;;;;;5230148;28;20029;-82
2022/06/26 10:34:55;;;;;;;1.30;0.82;;;27.60;99.90;;;;;;5229986;28;20033;-81
2022/06/26 10:37:27;;;;;;;1.48;0.60;;;27.70;99.90;;;;;;5229974;28;20470;-81
2022/06/26 10:39:58;;;;;;;2.15;0.68;;;28.20;99.90;;;;;;5230042;28;20104;-80
2022/06/26 10:45:29;;;;;;;2.75;0.60;;;27.70;99.90;;;;;;5230124;28;20373;-80
2022/06/26 10:48:04;;;;;;;3.45;0.82;;;27.70;99.90;;;;;;5229848;28;20021;-74
2022/06/26 10:50:37;;;;;;;3.83;1.10;;;28.10;99.90;;;;;;5229649;28;20104;-73
2022/06/26 10:53:20;;;;;;;3.53;1.20;;;28.00;99.90;;;;;;5228339;28;20027;-74
2022/06/26 10:55:54;;;;;;;1.75;0.70;;;28.10;99.90;;;;;;5229447;28;20377;-74
2022/06/26 10:58:37;;;;;;;4.30;0.80;;;27.80;99.90;;;;;;5229600;28;20045;-75
2022/06/26 11:01:10;;;;;;;3.00;0.65;;;28.00;99.90;;;;;;5228296;28;20480;-81
2022/06/26 11:03:42;;;;;;;3.25;0.70;;;28.30;99.90;;;;;;5229603;28;20025;-82
2022/06/26 11:06:15;;;;;;;2.08;0.88;;;28.20;99.90;;;;;;5229398;28;20017;-80
2022/06/26 11:08:51;;;;;;;2.13;0.95;;;27.70;99.90;;;;;;5229135;28;20033;-74
2022/06/26 11:11:31;;;;;;;6.85;2.63;;;28.30;99.90;;;;;;5229321;28;20017;-81
2022/06/26 11:14:02;;;;;;;2.15;0.65;;;28.20;99.90;;;;;;5227964;28;20491;-74
2022/06/26 11:16:42;;;;;;;23.67;16.63;;;28.00;99.90;;;;;;5229172;28;20036;-81
2022/06/26 11:19:27;;;;;;;2.65;1.25;;;28.10;99.90;;;;;;5229228;28;20021;-74
2022/06/26 11:22:10;;;;;;;5.72;0.75;;;27.50;99.90;;;;;;5229049;28;20037;-73
2022/06/26 11:24:51;;;;;;;12.88;1.20;;;28.10;99.90;;;;;;5229086;28;20113;-74
2022/06/26 11:27:24;;;;;;;2.08;1.00;;;28.50;99.90;;;;;;5228853;28;20044;-81
2022/06/26 11:29:55;;;;;;;2.10;0.70;;;28.50;99.90;;;;;;5229122;28;20342;-81
2022/06/26 11:32:26;;;;;;;1.60;0.60;;;28.20;99.90;;;;;;5228985;28;20018;-81
2022/06/26 11:34:57;;;;;;;1.77;0.70;;;28.00;99.90;;;;;;5228849;28;20040;-74
2022/06/26 11:37:32;;;;;;;4.85;0.90;;;28.40;99.90;;;;;;5228833;28;20033;-74
2022/06/26 11:40:17;;;;;;;1.50;0.70;;;28.70;99.90;;;;;;5228934;28;20109;-80
2022/06/26 11:42:55;;;;;;;3.80;1.00;;;28.50;99.90;;;;;;5228706;28;20028;-77
2022/06/26 11:45:30;;;;;;;1.50;0.80;;;28.50;99.90;;;;;;5228806;28;20033;-74
2022/06/26 11:48:06;;;;;;;1.30;0.50;;;28.60;99.90;;;;;;5228502;28;20025;-81
2022/06/26 11:50:37;;;;;;;2.33;0.75;;;28.70;99.90;;;;;;5228575;28;20021;-74
2022/06/26 11:53:08;;;;;;;1.55;0.80;;;28.60;99.90;;;;;;5228497;28;20471;-80
2022/06/26 11:55:51;;;;;;;3.58;0.80;;;28.50;99.90;;;;;;5228387;28;20037;-74
2022/06/26 11:58:24;;;;;;;3.63;0.88;;;27.30;99.90;;;;;;5228317;28;20036;-73
2022/06/26 12:01:12;;;;;;;1.23;0.70;;;28.10;99.90;;;;;;5227146;28;20074;-82
2022/06/26 12:03:43;;;;;;;2.08;0.80;;;28.70;99.90;;;;;;5228342;28;20032;-74
2022/06/26 12:06:29;;;;;;;1.88;0.75;;;28.70;99.90;;;;;;5228351;28;20021;-73
2022/06/26 12:09:01;;;;;;;2.47;0.68;;;28.10;99.90;;;;;;5228223;28;20467;-74
2022/06/26 12:11:41;;;;;;;2.38;0.70;;;27.80;99.90;;;;;;5228121;28;20036;-74
2022/06/26 12:14:13;;;;;;;1.10;0.70;;;28.00;99.90;;;;;;5228045;28;20095;-74
2022/06/26 12:16:55;;;;;;;3.00;0.70;;;28.20;99.90;;;;;;5227945;28;20091;-74
2022/06/26 12:19:39;;;;;;;2.85;1.10;;;27.70;99.90;;;;;;5228161;28;20097;-81
2022/06/26 12:22:10;;;;;;;4.15;1.27;;;27.90;99.90;;;;;;5227368;28;20135;-73
2022/06/26 12:24:50;;;;;;;2.35;1.00;;;27.90;99.90;;;;;;5227948;28;20099;-75
2022/06/26 12:27:32;;;;;;;1.17;0.77;;;28.30;99.90;;;;;;5227568;28;20076;-79
2022/06/26 12:30:28;;;;;;;1.33;0.50;;;28.30;99.90;;;;;;5227989;28;20411;-81
2022/06/26 12:33:00;;;;;;;1.10;0.40;;;27.90;99.90;;;;;;5227835;28;20028;-74
2022/06/26 12:35:33;;;;;;;1.75;0.50;;;28.10;99.90;;;;;;5227627;28;20090;-73
2022/06/26 12:38:03;;;;;;;1.05;0.43;;;27.80;99.90;;;;;;5227779;28;20346;-81
2022/06/26 12:40:34;;;;;;;0.55;0.43;;;27.60;99.90;;;;;;5227730;28;20028;-81
2022/06/26 12:43:05;;;;;;;2.47;0.50;;;28.30;99.90;;;;;;5227692;28;20508;-80
2022/06/26 12:45:36;;;;;;;1.77;0.43;;;27.90;99.90;;;;;;5227627;28;20048;-73
2022/06/26 12:48:07;;;;;;;0.85;0.40;;;28.00;99.90;;;;;;5227544;28;20021;-74
2022/06/26 12:50:38;;;;;;;1.95;0.60;;;28.20;99.90;;;;;;5227549;28;20093;-81
2022/06/26 12:53:09;;;;;;;2.65;0.80;;;28.30;99.90;;;;;;5227443;28;20380;-81
2022/06/26 12:55:40;;;;;;;4.50;0.82;;;27.90;99.90;;;;;;5227335;28;20045;-75
2022/06/26 12:58:11;;;;;;;2.58;0.73;;;28.80;99.90;;;;;;5227372;28;20071;-74
2022/06/26 13:00:42;;;;;;;2.53;0.60;;;28.50;99.90;;;;;;5227599;28;20368;-73
2022/06/26 13:03:13;;;;;;;3.03;0.60;;;28.50;99.90;;;;;;5227385;28;20029;-73
2022/06/26 13:05:44;;;;;;;1.33;0.63;;;28.50;99.90;;;;;;5227442;28;20059;-77
2022/06/26 13:08:15;;;;;;;2.05;0.50;;;28.50;99.90;;;;;;5227360;28;20024;-73
2022/06/26 13:10:46;;;;;;;2.05;0.70;;;28.30;99.90;;;;;;5227387;28;20017;-74
2022/06/26 13:13:17;;;;;;;1.40;0.47;;;28.80;99.90;;;;;;5227515;28;20029;-74
2022/06/26 13:15:47;;;;;;;1.98;0.73;;;28.40;99.90;;;;;;5227294;28;20037;-74
2022/06/26 13:18:18;;;;;;;1.45;0.32;;;28.50;99.90;;;;;;5227227;28;20025;-81
2022/06/26 13:20:49;;;;;;;0.70;0.50;;;27.70;99.90;;;;;;5227484;28;20028;-74
2022/06/26 13:23:20;;;;;;;2.00;0.68;;;28.80;99.90;;;;;;5227236;28;20017;-79
2022/06/26 13:25:50;;;;;;;2.15;0.63;;;28.50;99.90;;;;;;5226770;28;20049;-74
2022/06/26 13:28:21;;;;;;;1.75;0.65;;;28.20;99.90;;;;;;5227127;28;20029;-81
2022/06/26 13:30:52;;;;;;;1.13;0.50;;;28.20;99.90;;;;;;5227341;28;20037;-74
2022/06/26 13:33:23;;;;;;;0.90;0.40;;;28.20;99.90;;;;;;5230783;28;20468;-74